Time;durP1;ratioP1;P1;durP2;ratioP2;P2;SDS_P1;SDS_P2;PMS_P1;PMS_P2;Temp;Humidity;BMP_temperature;BMP_pressure;BME280_temperature;BME280_humidity;BME280_pressure;Samples;Min_cycle;Max_cycle;Signal;HPM_P1;HPM_P2
2021/06/14 00:01:30;;;;;;;3.90;2.33;;;21.60;94.00;;;;;;5036369;28;20540;-87
2021/06/14 00:03:56;;;;;;;2.90;2.20;;;21.60;94.00;;;;;;5034618;28;20116;-86
2021/06/14 00:06:22;;;;;;;4.43;2.50;;;21.50;94.10;;;;;;5037432;28;20071;-80
2021/06/14 00:08:48;;;;;;;3.88;2.35;;;21.50;94.20;;;;;;5038459;28;20049;-80
2021/06/14 00:11:14;;;;;;;6.10;2.40;;;21.40;94.40;;;;;;5039071;28;20060;-81
2021/06/14 00:13:40;;;;;;;3.55;2.40;;;21.30;94.60;;;;;;5038324;28;20500;-80
2021/06/14 00:16:07;;;;;;;3.00;2.63;;;21.30;94.70;;;;;;5034659;28;20096;-85
2021/06/14 00:18:36;;;;;;;3.10;2.60;;;21.20;94.90;;;;;;5038144;28;20404;-82
2021/06/14 00:21:10;;;;;;;2.70;2.50;;;21.10;95.20;;;;;;5035358;28;20573;-80
2021/06/14 00:23:36;;;;;;;4.70;2.67;;;21.00;95.40;;;;;;5029434;28;20523;-81
2021/06/14 00:26:09;;;;;;;6.10;2.72;;;20.90;95.70;;;;;;5034941;28;20026;-85
2021/06/14 00:28:35;;;;;;;4.60;2.40;;;20.90;95.80;;;;;;5036787;28;20046;-80
2021/06/14 00:31:02;;;;;;;2.60;2.40;;;20.90;95.90;;;;;;5038604;28;20396;-80
2021/06/14 00:33:27;;;;;;;5.18;2.45;;;20.90;95.90;;;;;;5038900;28;20058;-80
2021/06/14 00:35:53;;;;;;;3.90;2.83;;;20.80;96.00;;;;;;5042190;28;20059;-85
2021/06/14 00:38:19;;;;;;;2.88;2.58;;;20.80;96.20;;;;;;5038685;28;20063;-85
2021/06/14 00:40:46;;;;;;;2.90;2.70;;;20.70;96.40;;;;;;5037975;28;20400;-80
2021/06/14 00:43:13;;;;;;;5.72;3.08;;;20.60;96.70;;;;;;5038603;28;20083;-81
2021/06/14 00:45:43;;;;;;;4.65;2.55;;;20.50;96.90;;;;;;5035466;28;20116;-85
2021/06/14 00:48:10;;;;;;;3.22;2.85;;;20.40;97.10;;;;;;5037565;28;20025;-80
2021/06/14 00:50:43;;;;;;;2.92;2.60;;;20.40;97.30;;;;;;5034911;28;20030;-80
2021/06/14 00:53:31;;;;;;;3.50;3.15;;;20.30;97.50;;;;;;5038234;28;20049;-80
2021/06/14 00:55:59;;;;;;;3.42;2.72;;;20.20;97.60;;;;;;5034553;28;20032;-80
2021/06/14 00:58:25;;;;;;;5.43;2.55;;;20.20;97.90;;;;;;5047914;28;20038;-80
2021/06/14 01:00:51;;;;;;;3.92;2.90;;;20.10;98.00;;;;;;5027780;28;20025;-81
2021/06/14 01:03:17;;;;;;;3.83;3.10;;;20.10;98.00;;;;;;5041041;28;20449;-80
2021/06/14 01:05:46;;;;;;;5.05;2.58;;;20.10;98.20;;;;;;5031269;28;20017;-80
2021/06/14 01:08:13;;;;;;;3.92;3.13;;;20.10;98.20;;;;;;5040645;28;20083;-85
2021/06/14 01:10:40;;;;;;;7.13;3.00;;;20.00;98.40;;;;;;5033144;28;20014;-84
2021/06/14 01:13:09;;;;;;;5.28;2.78;;;20.00;98.70;;;;;;5037039;28;20017;-86
2021/06/14 01:15:53;;;;;;;5.13;2.78;;;19.90;98.60;;;;;;5038616;28;20025;-81
2021/06/14 01:18:24;;;;;;;3.08;2.67;;;19.90;98.70;;;;;;5033200;28;20075;-85
2021/06/14 01:21:12;;;;;;;3.60;3.00;;;19.90;98.90;;;;;;5036057;28;20021;-80
2021/06/14 01:24:02;;;;;;;3.10;2.50;;;19.80;99.00;;;;;;5029908;28;20128;-80
2021/06/14 01:26:35;;;;;;;3.45;3.05;;;19.80;99.10;;;;;;5031286;28;20038;-85
2021/06/14 01:29:04;;;;;;;;;;;19.80;99.20;;;;;;5033924;28;20404;-80
2021/06/14 01:31:35;;;;;;;4.03;2.75;;;19.80;99.30;;;;;;5043288;28;20324;-80
2021/06/14 01:34:01;;;;;;;5.55;3.42;;;19.80;99.30;;;;;;5044959;28;20098;-85
2021/06/14 01:36:31;;;;;;;5.38;2.97;;;19.80;99.30;;;;;;5034682;28;20025;-80
2021/06/14 01:38:58;;;;;;;4.13;2.75;;;19.80;99.40;;;;;;5042197;28;20460;-80
2021/06/14 01:41:27;;;;;;;4.68;3.50;;;19.70;99.50;;;;;;5035805;28;20018;-80
2021/06/14 01:43:54;;;;;;;4.43;2.72;;;19.70;99.60;;;;;;5042525;28;20495;-85
2021/06/14 01:46:26;;;;;;;5.70;3.45;;;19.60;99.80;;;;;;5037198;28;20618;-80
2021/06/14 01:48:53;;;;;;;6.10;3.17;;;19.50;99.90;;;;;;5039277;28;20028;-80
2021/06/14 01:51:26;;;;;;;5.25;3.30;;;19.50;99.90;;;;;;5038396;28;20271;-80
2021/06/14 01:54:06;;;;;;;3.53;2.92;;;19.40;99.90;;;;;;5028613;28;20030;-80
2021/06/14 01:56:33;;;;;;;3.50;3.20;;;19.40;99.90;;;;;;5036152;28;20053;-80
2021/06/14 01:59:01;;;;;;;3.60;3.30;;;19.40;99.90;;;;;;5036303;28;20033;-84
2021/06/14 02:01:29;;;;;;;5.47;3.00;;;19.40;99.90;;;;;;5033465;28;20022;-84
2021/06/14 02:03:56;;;;;;;4.03;3.25;;;19.30;99.90;;;;;;5038495;28;20042;-81
2021/06/14 02:06:25;;;;;;;4.68;3.40;;;19.30;99.90;;;;;;5041329;28;20052;-80
2021/06/14 02:08:50;;;;;;;5.00;3.40;;;19.20;99.90;;;;;;5040035;28;20028;-80
2021/06/14 02:11:18;;;;;;;6.05;3.45;;;19.20;99.90;;;;;;5040685;28;20025;-80
2021/06/14 02:13:47;;;;;;;3.67;3.13;;;19.20;99.90;;;;;;5038546;28;20032;-80
2021/06/14 02:16:15;;;;;;;5.13;3.40;;;19.20;99.90;;;;;;5039689;28;20021;-80
2021/06/14 02:18:41;;;;;;;7.57;3.40;;;19.10;99.90;;;;;;5036585;28;20087;-85
2021/06/14 02:21:06;;;;;;;5.65;3.30;;;19.10;99.90;;;;;;5037763;28;20034;-85
2021/06/14 02:23:33;;;;;;;7.97;3.60;;;19.10;99.90;;;;;;5033016;28;20045;-80
2021/06/14 02:25:59;;;;;;;4.38;3.00;;;19.00;99.90;;;;;;5040670;28;20029;-80
2021/06/14 02:28:25;;;;;;;5.32;3.30;;;19.00;99.90;;;;;;5032850;28;20034;-80
2021/06/14 02:30:50;;;;;;;3.95;3.53;;;18.90;99.90;;;;;;5040834;28;20105;-80
2021/06/14 02:33:16;;;;;;;7.15;3.63;;;18.90;99.90;;;;;;5037122;28;20029;-80
2021/06/14 02:35:45;;;;;;;6.35;3.60;;;18.90;99.90;;;;;;5036243;28;20036;-80
2021/06/14 02:38:11;;;;;;;3.58;3.28;;;18.90;99.90;;;;;;5032576;28;20025;-80
2021/06/14 02:40:40;;;;;;;4.00;3.60;;;18.90;99.90;;;;;;5043150;28;20018;-81
2021/06/14 02:43:09;;;;;;;3.53;3.22;;;18.90;99.90;;;;;;5036453;28;20522;-80
2021/06/14 02:45:39;;;;;;;4.20;3.78;;;18.90;99.90;;;;;;5032836;28;20436;-80
2021/06/14 02:48:07;;;;;;;9.02;3.40;;;18.90;99.90;;;;;;5038699;28;20034;-81
2021/06/14 02:50:37;;;;;;;8.88;4.00;;;18.80;99.90;;;;;;5036730;28;20022;-80
2021/06/14 02:53:08;;;;;;;4.35;3.90;;;18.80;99.90;;;;;;5032630;28;20493;-81
2021/06/14 02:55:40;;;;;;;4.05;3.65;;;18.80;99.90;;;;;;5033113;28;20040;-80
2021/06/14 02:58:07;;;;;;;3.88;3.40;;;18.70;99.90;;;;;;5036931;28;20071;-85
2021/06/14 03:00:33;;;;;;;5.32;3.60;;;18.70;99.90;;;;;;5037349;28;20044;-79
2021/06/14 03:03:04;;;;;;;9.05;3.70;;;18.70;99.90;;;;;;5032226;28;20025;-85
2021/06/14 03:05:31;;;;;;;3.90;3.47;;;18.70;99.90;;;;;;5036986;28;20022;-85
2021/06/14 03:07:59;;;;;;;6.35;4.13;;;18.70;99.90;;;;;;5035350;28;20117;-85
2021/06/14 03:10:27;;;;;;;5.65;4.10;;;18.70;99.90;;;;;;5034397;28;20037;-80
2021/06/14 03:12:55;;;;;;;4.80;3.85;;;18.70;99.90;;;;;;5036417;28;20032;-80
2021/06/14 03:15:22;;;;;;;9.15;4.03;;;18.70;99.90;;;;;;5031270;28;20029;-85
2021/06/14 03:17:48;;;;;;;7.57;3.80;;;18.70;99.90;;;;;;5031144;28;20061;-85
2021/06/14 03:20:16;;;;;;;5.25;4.00;;;18.70;99.90;;;;;;5036002;28;20021;-85
2021/06/14 03:22:41;;;;;;;8.13;3.70;;;18.60;99.90;;;;;;5038187;28;20041;-80
2021/06/14 03:25:07;;;;;;;5.35;4.30;;;18.50;99.90;;;;;;5035798;28;20374;-85
2021/06/14 03:27:34;;;;;;;5.30;3.58;;;18.50;99.90;;;;;;5035817;28;20063;-80
2021/06/14 03:30:01;;;;;;;6.82;3.72;;;18.50;99.90;;;;;;5030455;28;20164;-80
2021/06/14 03:32:27;;;;;;;6.43;3.92;;;18.50;99.90;;;;;;5038754;28;20037;-85
2021/06/14 03:34:54;;;;;;;5.07;3.75;;;18.50;99.90;;;;;;5022757;28;20112;-80
2021/06/14 03:37:20;;;;;;;6.20;4.10;;;18.50;99.90;;;;;;5039045;28;20021;-80
2021/06/14 03:39:46;;;;;;;5.93;4.22;;;18.40;99.90;;;;;;5042748;28;20031;-80
2021/06/14 03:42:19;;;;;;;7.65;4.43;;;18.40;99.90;;;;;;5033156;28;20021;-80
2021/06/14 03:44:45;;;;;;;6.40;4.22;;;18.40;99.90;;;;;;5035570;28;20030;-80
2021/06/14 03:47:11;;;;;;;6.95;3.90;;;18.40;99.90;;;;;;5035513;28;20036;-80
2021/06/14 03:49:36;;;;;;;5.82;4.00;;;18.40;99.90;;;;;;5032175;28;20481;-81
2021/06/14 03:52:03;;;;;;;6.20;4.53;;;18.30;99.90;;;;;;5039429;28;20031;-85
2021/06/14 03:54:28;;;;;;;6.78;4.25;;;18.30;99.90;;;;;;5035706;28;20029;-85
2021/06/14 03:56:54;;;;;;;9.05;4.35;;;18.30;99.90;;;;;;5042140;28;20096;-81
2021/06/14 03:59:20;;;;;;;6.60;4.20;;;18.30;99.90;;;;;;5038474;28;20544;-80
2021/06/14 04:01:46;;;;;;;5.15;4.20;;;18.30;99.90;;;;;;5041749;28;20025;-80
2021/06/14 04:04:31;;;;;;;6.95;4.15;;;18.30;99.90;;;;;;5038563;28;20076;-85
2021/06/14 04:06:57;;;;;;;7.53;4.03;;;18.30;99.90;;;;;;5033366;28;20071;-85
2021/06/14 04:09:22;;;;;;;6.65;4.40;;;18.20;99.90;;;;;;5038075;28;20029;-85
2021/06/14 04:11:49;;;;;;;5.75;4.20;;;18.20;99.90;;;;;;5041178;28;20087;-86
2021/06/14 04:14:14;;;;;;;4.60;4.00;;;18.20;99.90;;;;;;5039853;28;20037;-80
2021/06/14 04:16:40;;;;;;;7.68;4.40;;;18.10;99.90;;;;;;5038098;28;20610;-85
2021/06/14 04:19:06;;;;;;;5.97;4.03;;;18.10;99.90;;;;;;5039090;28;20025;-80
2021/06/14 04:21:31;;;;;;;5.90;4.45;;;18.10;99.90;;;;;;5039802;28;20024;-85
2021/06/14 04:23:57;;;;;;;6.22;4.07;;;18.10;99.90;;;;;;5039020;28;20124;-80
2021/06/14 04:26:23;;;;;;;6.60;4.20;;;18.00;99.90;;;;;;5042622;28;20044;-82
2021/06/14 04:28:48;;;;;;;5.63;4.43;;;18.00;99.90;;;;;;5038798;28;20040;-80
2021/06/14 04:31:14;;;;;;;6.18;4.20;;;18.10;99.90;;;;;;5039131;28;20071;-85
2021/06/14 04:33:40;;;;;;;8.75;4.97;;;18.10;99.90;;;;;;5037735;28;20500;-80
2021/06/14 04:36:06;;;;;;;5.30;4.80;;;18.00;99.90;;;;;;5039148;28;20128;-80
2021/06/14 04:38:33;;;;;;;5.38;4.15;;;18.10;99.90;;;;;;5039456;28;20029;-85
2021/06/14 04:40:59;;;;;;;7.40;4.07;;;18.10;99.90;;;;;;5038614;28;20057;-79
2021/06/14 04:43:24;;;;;;;6.07;4.05;;;18.10;99.90;;;;;;5033578;28;20064;-80
2021/06/14 04:45:50;;;;;;;8.43;4.82;;;18.10;99.90;;;;;;5037874;28;20100;-85
2021/06/14 04:48:15;;;;;;;10.05;4.35;;;18.10;99.90;;;;;;5040331;28;20021;-84
2021/06/14 04:50:41;;;;;;;4.63;4.20;;;18.10;99.90;;;;;;5038840;28;20061;-80
2021/06/14 04:53:07;;;;;;;6.28;4.47;;;18.20;99.90;;;;;;5037168;28;20036;-84
2021/06/14 04:55:32;;;;;;;6.20;4.72;;;18.20;99.90;;;;;;5034745;28;20032;-85
2021/06/14 04:57:58;;;;;;;5.70;4.15;;;18.30;99.90;;;;;;5033352;28;20021;-85
2021/06/14 05:00:24;;;;;;;6.55;4.10;;;18.40;99.90;;;;;;5029551;28;20021;-79
2021/06/14 05:02:50;;;;;;;6.60;4.28;;;18.50;99.90;;;;;;5037998;28;20021;-80
2021/06/14 05:05:16;;;;;;;11.30;4.55;;;18.50;99.90;;;;;;5037642;28;20425;-80
2021/06/14 05:07:42;;;;;;;6.40;4.22;;;18.50;99.90;;;;;;5038140;28;20074;-80
2021/06/14 05:10:08;;;;;;;8.48;4.20;;;18.60;99.90;;;;;;5034296;28;20488;-85
2021/06/14 05:12:37;;;;;;;4.68;4.07;;;18.60;99.90;;;;;;5037842;28;20615;-80
2021/06/14 05:15:04;;;;;;;5.80;4.07;;;18.70;99.90;;;;;;5033542;28;20053;-81
2021/06/14 05:17:30;;;;;;;9.75;4.13;;;18.80;99.90;;;;;;5034363;28;20030;-80
2021/06/14 05:19:56;;;;;;;6.57;4.07;;;18.90;99.90;;;;;;5035922;28;20021;-79
2021/06/14 05:22:22;;;;;;;8.13;4.30;;;18.90;99.90;;;;;;5034669;28;20129;-85
2021/06/14 05:24:47;;;;;;;6.68;4.10;;;18.90;99.90;;;;;;5037161;28;20025;-81
2021/06/14 05:27:16;;;;;;;12.93;4.30;;;19.00;99.90;;;;;;5038367;28;20477;-80
2021/06/14 05:29:41;;;;;;;8.35;3.80;;;19.10;99.90;;;;;;5034002;28;20064;-79
2021/06/14 05:32:08;;;;;;;5.35;4.20;;;19.20;99.90;;;;;;5040382;28;20029;-80
2021/06/14 05:34:33;;;;;;;6.15;4.00;;;19.20;99.90;;;;;;5041703;28;20029;-80
2021/06/14 05:36:59;;;;;;;6.15;3.85;;;19.30;99.90;;;;;;5038899;28;20021;-80
2021/06/14 05:39:25;;;;;;;5.20;4.00;;;19.40;99.90;;;;;;5036732;28;20104;-80
2021/06/14 05:41:51;;;;;;;6.43;4.15;;;19.40;99.90;;;;;;5035247;28;20056;-80
2021/06/14 05:44:16;;;;;;;6.05;3.90;;;19.50;99.90;;;;;;5033108;28;20396;-80
2021/06/14 05:46:42;;;;;;;7.25;4.47;;;19.60;99.90;;;;;;5030211;28;20033;-86
2021/06/14 05:49:08;;;;;;;9.23;3.55;;;19.70;99.90;;;;;;5029491;28;20095;-80
2021/06/14 05:51:35;;;;;;;6.45;4.00;;;19.70;99.90;;;;;;5033424;28;20112;-80
2021/06/14 05:54:00;;;;;;;9.15;3.58;;;19.80;99.90;;;;;;5036278;28;20033;-85
2021/06/14 05:56:26;;;;;;;7.38;3.70;;;19.90;99.90;;;;;;5032163;28;20025;-86
2021/06/14 05:58:52;;;;;;;4.47;3.40;;;20.00;99.90;;;;;;5035452;28;20022;-79
2021/06/14 06:01:18;;;;;;;8.15;3.88;;;20.10;99.90;;;;;;5033044;28;20034;-86
2021/06/14 06:03:43;;;;;;;5.32;3.28;;;20.20;99.90;;;;;;5037242;28;20077;-80
2021/06/14 06:06:09;;;;;;;5.47;3.20;;;20.40;99.90;;;;;;5033506;28;20112;-80
2021/06/14 06:08:35;;;;;;;4.28;3.40;;;20.40;99.90;;;;;;5033225;28;20029;-87
2021/06/14 06:11:00;;;;;;;7.68;3.13;;;20.60;99.90;;;;;;5031891;28;20037;-80
2021/06/14 06:13:26;;;;;;;5.72;3.67;;;20.70;99.90;;;;;;5032478;28;20021;-88
2021/06/14 06:15:52;;;;;;;5.57;3.35;;;20.80;99.90;;;;;;5027308;28;20029;-80
2021/06/14 06:18:17;;;;;;;7.13;3.33;;;20.90;99.90;;;;;;5031162;28;20424;-80
2021/06/14 06:20:43;;;;;;;5.30;3.65;;;21.00;99.90;;;;;;5031515;28;20388;-80
2021/06/14 06:23:09;;;;;;;6.28;3.10;;;21.00;99.90;;;;;;5032075;28;20081;-80
2021/06/14 06:25:35;;;;;;;4.47;3.20;;;21.20;99.90;;;;;;5030840;28;20033;-79
2021/06/14 06:28:01;;;;;;;4.93;3.33;;;21.30;99.50;;;;;;5029932;28;20045;-79
2021/06/14 06:30:29;;;;;;;10.60;3.45;;;21.40;99.50;;;;;;5032323;28;20030;-81
2021/06/14 06:32:55;;;;;;;4.40;3.17;;;21.50;99.50;;;;;;5031757;28;20068;-84
2021/06/14 06:35:21;;;;;;;3.97;3.08;;;21.60;99.00;;;;;;5031460;28;20767;-85
2021/06/14 06:37:48;;;;;;;6.72;3.28;;;21.70;98.70;;;;;;5031666;28;20033;-81
2021/06/14 06:40:14;;;;;;;4.50;2.90;;;21.80;98.70;;;;;;5031492;28;20017;-85
2021/06/14 06:42:40;;;;;;;4.93;2.67;;;22.00;98.30;;;;;;5031409;28;20043;-81
2021/06/14 06:45:07;;;;;;;3.63;2.60;;;22.10;98.10;;;;;;5031048;28;20404;-79
2021/06/14 06:47:34;;;;;;;5.32;2.92;;;22.20;97.70;;;;;;5029482;28;20462;-84
2021/06/14 06:49:59;;;;;;;5.70;2.70;;;22.30;97.70;;;;;;5029148;28;20025;-84
2021/06/14 06:52:25;;;;;;;6.43;2.97;;;22.50;97.70;;;;;;5031245;28;20523;-84
2021/06/14 06:54:51;;;;;;;8.73;2.75;;;22.60;97.30;;;;;;5029362;28;20041;-82
2021/06/14 06:57:17;;;;;;;6.07;3.10;;;22.80;96.80;;;;;;5028427;28;20400;-81
2021/06/14 06:59:43;;;;;;;4.47;3.10;;;22.90;96.80;;;;;;5030289;28;20497;-83
2021/06/14 07:02:09;;;;;;;7.13;3.28;;;22.90;96.80;;;;;;5034513;28;20080;-83
2021/06/14 07:04:37;;;;;;;9.52;2.80;;;23.10;96.50;;;;;;5030747;28;20884;-83
2021/06/14 07:07:03;;;;;;;6.50;3.08;;;23.20;96.30;;;;;;5025621;28;20033;-84
2021/06/14 07:09:29;;;;;;;4.55;2.60;;;23.30;96.20;;;;;;5026376;28;20807;-84
2021/06/14 07:11:56;;;;;;;7.68;2.72;;;23.50;95.70;;;;;;5038011;28;20054;-84
2021/06/14 07:14:22;;;;;;;6.50;2.70;;;23.60;95.50;;;;;;5029592;28;20036;-84
2021/06/14 07:16:48;;;;;;;6.47;2.70;;;23.70;95.30;;;;;;5027782;28;20088;-82
2021/06/14 07:19:14;;;;;;;8.95;3.30;;;23.90;95.10;;;;;;5031283;28;20045;-84
2021/06/14 07:21:39;;;;;;;6.68;2.47;;;24.10;95.20;;;;;;5034139;28;20026;-82
2021/06/14 07:24:06;;;;;;;8.93;2.60;;;24.20;94.50;;;;;;5028834;28;20117;-82
2021/06/14 07:26:33;;;;;;;5.13;2.65;;;24.40;94.10;;;;;;5030535;28;20034;-82
2021/06/14 07:28:59;;;;;;;5.43;2.92;;;24.70;93.90;;;;;;5034555;28;20024;-82
2021/06/14 07:31:25;;;;;;;6.95;2.78;;;25.60;92.90;;;;;;5035128;28;20037;-84
2021/06/14 07:33:51;;;;;;;3.47;2.13;;;27.80;90.00;;;;;;5034681;28;20103;-83
2021/06/14 07:36:17;;;;;;;6.07;2.50;;;30.00;84.40;;;;;;5037432;28;20031;-83
2021/06/14 07:38:43;;;;;;;6.78;2.40;;;31.90;78.20;;;;;;5035224;28;20104;-83
2021/06/14 07:41:09;;;;;;;5.57;2.55;;;33.10;73.40;;;;;;5035635;28;20049;-81
2021/06/14 07:43:35;;;;;;;6.90;2.38;;;33.90;70.10;;;;;;5037937;28;20021;-82
2021/06/14 07:46:01;;;;;;;8.73;2.50;;;33.80;69.40;;;;;;5037481;28;20024;-83
2021/06/14 07:48:27;;;;;;;5.78;2.65;;;33.90;68.50;;;;;;5031710;28;20029;-88
2021/06/14 07:50:55;;;;;;;6.25;2.72;;;34.60;66.00;;;;;;5034745;28;20450;-83
2021/06/14 07:53:21;;;;;;;14.05;3.17;;;34.50;64.60;;;;;;5037217;28;20551;-87
2021/06/14 07:55:47;;;;;;;10.07;2.72;;;35.40;64.30;;;;;;5030397;28;20026;-84
2021/06/14 07:58:14;;;;;;;3.03;2.67;;;35.70;63.20;;;;;;5033115;28;20040;-84
2021/06/14 08:00:41;;;;;;;8.10;2.75;;;35.50;62.00;;;;;;5033656;28;20061;-83
2021/06/14 08:03:08;;;;;;;6.95;2.83;;;35.80;60.80;;;;;;5033266;28;20376;-86
2021/06/14 08:05:34;;;;;;;3.90;3.05;;;36.40;59.80;;;;;;5034037;28;20069;-85
2021/06/14 08:08:00;;;;;;;7.70;3.03;;;37.20;58.50;;;;;;5033386;28;20048;-86
2021/06/14 08:10:36;;;;;;;5.00;3.50;;;38.20;56.80;;;;;;5033680;28;20484;-86
2021/06/14 08:13:03;;;;;;;4.22;3.28;;;38.50;55.40;;;;;;5034231;28;20389;-86
2021/06/14 08:15:39;;;;;;;3.97;3.15;;;38.50;54.60;;;;;;5035306;28;20017;-86
2021/06/14 08:26:10;;;;;;;3.75;3.45;;;39.30;51.70;;;;;;5038004;28;20056;-83
2021/06/14 08:28:36;;;;;;;5.70;3.58;;;39.90;51.10;;;;;;5033959;28;20033;-89
2021/06/14 08:31:03;;;;;;;3.70;3.38;;;40.30;50.50;;;;;;5034370;28;20072;-86
2021/06/14 08:33:30;;;;;;;6.03;3.20;;;40.10;49.30;;;;;;5032902;28;20026;-85
2021/06/14 08:35:55;;;;;;;4.43;3.60;;;39.60;50.30;;;;;;5031227;28;20124;-84
2021/06/14 08:38:24;;;;;;;4.03;3.60;;;39.30;49.00;;;;;;5035889;28;20104;-86
2021/06/14 08:40:50;;;;;;;5.45;3.60;;;39.20;49.80;;;;;;5040040;28;20013;-83
2021/06/14 08:43:19;;;;;;;4.05;3.42;;;39.60;50.10;;;;;;5035686;28;20064;-85
2021/06/14 08:45:48;;;;;;;3.47;3.28;;;39.50;50.00;;;;;;5036962;28;20113;-85
2021/06/14 08:48:14;;;;;;;4.00;3.60;;;39.60;47.90;;;;;;5033959;28;20068;-84
2021/06/14 08:50:41;;;;;;;4.15;3.45;;;39.10;47.60;;;;;;5031306;28;20056;-85
2021/06/14 08:53:07;;;;;;;4.95;3.42;;;39.80;48.30;;;;;;5034507;28;20037;-86
2021/06/14 08:55:33;;;;;;;3.60;3.40;;;40.60;47.70;;;;;;5031249;28;20034;-85
2021/06/14 08:57:59;;;;;;;6.30;4.00;;;40.60;47.80;;;;;;5029179;28;20052;-82
2021/06/14 09:00:27;;;;;;;3.95;3.65;;;40.30;45.70;;;;;;5032834;28;20539;-81
2021/06/14 09:02:54;;;;;;;5.15;3.72;;;39.80;46.40;;;;;;5030217;28;20110;-82
2021/06/14 09:05:21;;;;;;;4.65;3.53;;;40.10;47.50;;;;;;5034618;28;20033;-82
2021/06/14 09:07:48;;;;;;;9.68;3.70;;;40.70;46.70;;;;;;5032356;28;20080;-81
2021/06/14 09:10:43;;;;;;;4.68;3.47;;;41.40;46.30;;;;;;5031238;28;20064;-80
2021/06/14 09:13:13;;;;;;;7.45;4.10;;;40.80;45.60;;;;;;5026793;28;20041;-80
2021/06/14 09:15:40;;;;;;;4.30;3.70;;;40.90;46.50;;;;;;5033124;28;20427;-82
2021/06/14 09:18:26;;;;;;;6.18;3.70;;;40.70;46.00;;;;;;5034005;28;20037;-83
2021/06/14 09:21:11;;;;;;;4.75;3.80;;;39.80;46.30;;;;;;5027202;28;20099;-81
2021/06/14 09:23:46;;;;;;;4.63;4.07;;;39.30;48.30;;;;;;5029658;28;20060;-83
2021/06/14 09:26:45;;;;;;;6.68;3.95;;;40.30;46.90;;;;;;5028495;28;20032;-82
2021/06/14 09:29:35;;;;;;;4.30;3.60;;;41.00;46.90;;;;;;5037061;28;20152;-82
2021/06/14 09:32:03;;;;;;;4.20;3.83;;;40.80;47.50;;;;;;5023658;28;20124;-82
2021/06/14 09:34:42;;;;;;;4.32;3.92;;;41.00;47.10;;;;;;5032006;28;20558;-83
2021/06/14 09:37:12;;;;;;;5.80;3.95;;;41.10;46.20;;;;;;5028035;28;20022;-83
2021/06/14 09:39:41;;;;;;;5.97;4.40;;;40.40;45.40;;;;;;5023110;28;20484;-82
2021/06/14 09:42:17;;;;;;;4.60;4.20;;;40.20;47.20;;;;;;5026544;28;20057;-83
2021/06/14 09:44:44;;;;;;;5.60;4.00;;;41.20;47.40;;;;;;5029642;28;20033;-85
2021/06/14 09:47:11;;;;;;;4.93;4.50;;;41.10;45.60;;;;;;5029803;28;20045;-83
2021/06/14 09:49:38;;;;;;;6.75;4.00;;;41.80;44.50;;;;;;5032328;28;20017;-82
2021/06/14 09:52:05;;;;;;;4.65;3.90;;;40.50;44.00;;;;;;5029692;28;20037;-81
2021/06/14 09:54:35;;;;;;;4.20;3.80;;;40.20;46.10;;;;;;5030598;28;20091;-81
2021/06/14 09:57:04;;;;;;;4.90;3.60;;;39.80;45.50;;;;;;5028810;28;20033;-80
2021/06/14 09:59:38;;;;;;;7.40;4.53;;;39.80;46.60;;;;;;5026173;28;20096;-81
2021/06/14 10:02:18;;;;;;;5.00;4.10;;;40.20;45.90;;;;;;5030607;28;20031;-82
2021/06/14 10:04:52;;;;;;;6.93;4.20;;;41.60;44.50;;;;;;5028201;28;20037;-81
2021/06/14 10:07:19;;;;;;;8.63;4.13;;;41.00;43.40;;;;;;5030376;28;20105;-87
2021/06/14 10:09:50;;;;;;;4.68;4.20;;;40.30;42.90;;;;;;5029476;28;20108;-79
2021/06/14 10:12:21;;;;;;;9.10;3.92;;;39.80;43.80;;;;;;5033325;28;20036;-80
2021/06/14 10:14:54;;;;;;;4.57;4.28;;;40.00;44.90;;;;;;5027109;28;20053;-86
2021/06/14 10:17:40;;;;;;;4.78;4.38;;;40.60;44.20;;;;;;5033062;28;20037;-78
2021/06/14 10:20:16;;;;;;;4.35;4.00;;;40.40;45.50;;;;;;5024521;28;20079;-78
2021/06/14 10:22:43;;;;;;;5.22;4.50;;;40.80;44.30;;;;;;5036660;28;20500;-86
2021/06/14 10:25:11;;;;;;;4.45;3.75;;;41.20;43.40;;;;;;5036260;28;20033;-84
2021/06/14 10:27:37;;;;;;;4.57;4.00;;;40.40;43.00;;;;;;5041145;28;20033;-83
2021/06/14 10:30:07;;;;;;;4.15;3.83;;;41.00;42.00;;;;;;5039484;28;20562;-80
2021/06/14 10:32:35;;;;;;;6.75;3.50;;;40.90;43.00;;;;;;5034243;28;20021;-85
2021/06/14 10:35:01;;;;;;;5.35;3.95;;;39.80;42.00;;;;;;5034046;28;20068;-85
2021/06/14 10:37:27;;;;;;;4.78;3.45;;;39.30;42.20;;;;;;5036781;28;20489;-86
2021/06/14 10:39:55;;;;;;;4.90;3.50;;;39.80;43.30;;;;;;5033311;28;20090;-78
2021/06/14 10:42:22;;;;;;;5.68;4.50;;;40.10;42.10;;;;;;5032694;28;20034;-78
2021/06/14 10:44:48;;;;;;;4.18;3.80;;;39.80;42.50;;;;;;5040053;28;20030;-85
2021/06/14 10:47:14;;;;;;;4.47;4.18;;;39.40;42.60;;;;;;5034790;28;20445;-78
2021/06/14 10:49:40;;;;;;;3.63;3.42;;;39.50;42.60;;;;;;5032432;28;20044;-79
2021/06/14 10:52:07;;;;;;;4.60;3.72;;;39.50;42.60;;;;;;5033565;28;20497;-78
2021/06/14 10:54:44;;;;;;;5.07;3.38;;;39.50;42.60;;;;;;5033420;28;20021;-80
2021/06/14 10:57:12;;;;;;;3.65;3.30;;;39.10;41.50;;;;;;5035643;28;20026;-80
2021/06/14 10:59:47;;;;;;;4.05;3.53;;;39.60;43.30;;;;;;5036047;28;20485;-86
2021/06/14 11:02:14;;;;;;;3.65;3.35;;;39.90;43.70;;;;;;5037804;28;20032;-85
2021/06/14 11:04:41;;;;;;;7.32;3.50;;;40.10;43.30;;;;;;5030294;28;20026;-82
2021/06/14 11:07:07;;;;;;;6.38;3.55;;;39.70;44.10;;;;;;5041739;28;20026;-84
2021/06/14 11:09:44;;;;;;;5.68;4.10;;;40.20;43.50;;;;;;5032651;28;20032;-84
2021/06/14 11:12:11;;;;;;;3.60;3.40;;;40.60;44.60;;;;;;5044699;28;20504;-81
2021/06/14 11:14:39;;;;;;;6.38;3.70;;;40.10;43.50;;;;;;5038053;28;20079;-80
2021/06/14 11:17:20;;;;;;;3.13;2.92;;;39.60;43.30;;;;;;5037652;28;20049;-79
2021/06/14 11:19:50;;;;;;;3.63;3.10;;;39.50;42.80;;;;;;5036239;28;20021;-81
2021/06/14 11:22:17;;;;;;;3.92;3.53;;;38.90;42.80;;;;;;5029156;28;20029;-81
2021/06/14 11:24:44;;;;;;;4.88;3.13;;;38.70;44.40;;;;;;5031574;28;20493;-82
2021/06/14 11:27:10;;;;;;;3.53;3.22;;;39.20;45.60;;;;;;5029451;28;20037;-79
2021/06/14 11:29:44;;;;;;;3.88;3.20;;;39.20;43.90;;;;;;5030787;28;20041;-82
2021/06/14 11:32:10;;;;;;;6.43;3.55;;;39.00;43.70;;;;;;5033937;28;20083;-79
2021/06/14 11:34:41;;;;;;;5.13;3.50;;;38.60;44.50;;;;;;5031391;28;20029;-82
2021/06/14 11:37:07;;;;;;;3.30;3.10;;;38.80;44.60;;;;;;5033264;28;20079;-83
2021/06/14 11:39:34;;;;;;;4.20;3.80;;;39.20;45.00;;;;;;5031889;28;20028;-82
2021/06/14 11:42:20;;;;;;;14.75;3.95;;;39.00;44.30;;;;;;5029743;28;20107;-84
2021/06/14 11:44:54;;;;;;;11.13;6.45;;;39.00;45.30;;;;;;5031606;28;20037;-78
2021/06/14 11:47:22;;;;;;;5.80;3.30;;;38.30;45.60;;;;;;5029377;28;20034;-82
2021/06/14 11:49:51;;;;;;;4.82;3.50;;;38.10;46.40;;;;;;5032437;28;20029;-80
2021/06/14 11:52:19;;;;;;;5.13;3.17;;;38.00;45.70;;;;;;5030004;28;20033;-79
2021/06/14 11:54:45;;;;;;;3.80;3.33;;;38.30;46.60;;;;;;5025720;28;20099;-82
2021/06/14 11:57:12;;;;;;;5.72;3.25;;;38.30;45.70;;;;;;5027882;28;20018;-80
2021/06/14 11:59:38;;;;;;;6.05;3.38;;;37.90;46.30;;;;;;5036116;28;20041;-86
2021/06/14 12:02:17;;;;;;;8.90;3.10;;;37.90;46.90;;;;;;5028423;28;20030;-83
2021/06/14 12:04:45;;;;;;;4.95;3.00;;;37.90;46.30;;;;;;5034653;28;20032;-87
2021/06/14 12:07:11;;;;;;;8.35;3.00;;;38.00;46.00;;;;;;5030205;28;20030;-81
2021/06/14 12:09:40;;;;;;;4.45;2.97;;;37.50;46.50;;;;;;5033458;28;20018;-87
2021/06/14 12:12:07;;;;;;;5.07;3.03;;;37.50;47.50;;;;;;5031650;28;20076;-79
2021/06/14 12:14:33;;;;;;;6.28;3.35;;;37.70;46.40;;;;;;5037835;28;20026;-81
2021/06/14 12:17:05;;;;;;;11.02;2.85;;;37.20;46.60;;;;;;5036554;28;20033;-81
2021/06/14 12:19:32;;;;;;;6.88;3.13;;;37.70;47.70;;;;;;5030620;28;20025;-87
2021/06/14 12:22:04;;;;;;;3.40;2.90;;;37.30;47.80;;;;;;5037632;28;20401;-82
2021/06/14 12:24:32;;;;;;;6.10;2.92;;;36.90;47.20;;;;;;5009704;28;20038;-80
2021/06/14 12:27:08;;;;;;;4.65;2.70;;;36.90;46.80;;;;;;5014510;28;20046;-87
2021/06/14 12:29:34;;;;;;;4.25;2.70;;;36.40;48.10;;;;;;5011660;28;20102;-83
2021/06/14 12:32:16;;;;;;;3.03;2.83;;;36.90;47.90;;;;;;5015311;28;20722;-79
2021/06/14 12:34:44;;;;;;;7.07;2.95;;;38.50;47.50;;;;;;5013770;28;20026;-84
2021/06/14 12:37:14;;;;;;;7.43;2.80;;;38.20;46.20;;;;;;5008516;28;20489;-89
2021/06/14 12:39:40;;;;;;;4.82;2.75;;;37.80;45.90;;;;;;5011111;28;20489;-80
2021/06/14 12:42:19;;;;;;;7.35;2.85;;;37.10;47.20;;;;;;5012751;28;20041;-80
2021/06/14 12:45:05;;;;;;;7.47;2.58;;;36.00;48.40;;;;;;5006431;28;20104;-80
2021/06/14 12:47:32;;;;;;;6.20;2.42;;;36.50;48.30;;;;;;5014242;28;20083;-79
2021/06/14 12:50:00;;;;;;;4.28;2.65;;;36.90;47.90;;;;;;5014679;28;20049;-81
2021/06/14 12:52:28;;;;;;;6.80;3.03;;;36.80;47.60;;;;;;5027497;28;20034;-80
2021/06/14 12:54:55;;;;;;;5.85;3.03;;;37.00;47.80;;;;;;5010492;28;20026;-81
2021/06/14 12:57:25;;;;;;;3.90;2.83;;;37.30;47.20;;;;;;5016418;28;20037;-81
2021/06/14 12:59:52;;;;;;;3.20;2.72;;;37.10;47.50;;;;;;5016607;28;20022;-80
2021/06/14 13:02:18;;;;;;;7.05;2.80;;;36.90;47.30;;;;;;5017306;28;20022;-79